Arapahoe, North Carolina
Current Conditions -  °F | °C
As of 11:54 AM on Thursday 18 Dec 2014 (Local Time) from KNKT Reporting Station
Scattered Clouds Scattered Clouds  
Wind Chill: 47°   Ceiling: Unl
Heat Index: 49°   Visibility: 10mi
Dew Point: 32°   Wind: 5mph
Humidity: 52%   Direction: 60°ENE
Pressure: 30.15"   Gusts: NA
Location:  35.03°N, 76.83°W
Report Text: KNKT 181654Z 06004KT 10SM SCT200 09/00 A3015 RMK AO2 SLP207 T00940000 $
Loading
Personal Weather Stations






























Interactive Weather Map New forecast layout! Learn more

10-Day Weather Forecast

Advertisements
Track Severe Weather on mobile